Time;durP1;ratioP1;P1;durP2;ratioP2;P2;SDS_P1;SDS_P2;PMS_P1;PMS_P2;Temp;Humidity;BMP_temperature;BMP_pressure;BME280_temperature;BME280_humidity;BME280_pressure;Samples;Min_cycle;Max_cycle;Signal;HPM_P1;HPM_P2
2021/07/01 00:01:14;;;;;;;2.40;1.77;;;;;;;16.13;63.88;100964.19;5041425;28;20213;-66
2021/07/01 00:03:42;;;;;;;4.53;1.60;;;;;;;16.04;64.29;100957.72;5045140;28;20198;-66
2021/07/01 00:06:10;;;;;;;4.07;2.00;;;;;;;16.02;64.00;100954.31;5047345;28;20193;-67
2021/07/01 00:08:38;;;;;;;2.90;1.73;;;;;;;15.97;63.71;100958.41;5043358;28;20584;-66
2021/07/01 00:11:06;;;;;;;3.00;1.97;;;;;;;15.98;64.53;100941.16;5042967;28;20217;-66
2021/07/01 00:13:35;;;;;;;1.93;1.43;;;;;;;15.94;64.63;100956.81;5039475;28;20198;-66
2021/07/01 00:16:04;;;;;;;4.43;1.83;;;;;;;15.91;64.84;100948.94;5044317;28;20198;-67
2021/07/01 00:18:32;;;;;;;6.07;2.03;;;;;;;15.96;64.83;100946.72;5044604;28;20193;-67
2021/07/01 00:21:00;;;;;;;2.07;1.70;;;;;;;15.98;64.64;100935.75;5043219;28;20201;-67
2021/07/01 00:23:28;;;;;;;2.93;1.63;;;;;;;16.03;64.64;100938.91;5062717;28;20200;-67
2021/07/01 00:25:56;;;;;;;2.80;1.90;;;;;;;15.99;64.81;100943.72;5043106;28;20233;-67
2021/07/01 00:28:40;;;;;;;3.43;2.07;;;;;;;16.01;64.77;100936.31;5042560;28;20692;-67
2021/07/01 00:31:09;;;;;;;6.23;1.60;;;;;;;15.94;64.99;100934.28;5039742;28;20301;-67
2021/07/01 00:33:37;;;;;;;2.93;1.60;;;;;;;15.99;64.47;100926.63;5041262;28;20209;-68
2021/07/01 00:36:05;;;;;;;3.67;1.47;;;;;;;15.98;65.22;100919.50;5045469;28;20212;-67
2021/07/01 00:38:33;;;;;;;5.30;1.70;;;;;;;15.91;65.27;100913.72;5040533;28;20201;-67
2021/07/01 00:41:02;;;;;;;2.43;1.73;;;;;;;15.89;65.56;100912.16;5058238;28;20198;-67
2021/07/01 00:43:30;;;;;;;3.27;1.90;;;;;;;15.84;65.29;100917.97;5059534;28;20190;-68
2021/07/01 00:45:59;;;;;;;6.07;2.00;;;;;;;15.83;65.78;100917.09;5043862;28;20194;-67
2021/07/01 00:48:28;;;;;;;2.13;1.40;;;;;;;15.89;64.88;100920.28;5042888;28;20202;-67
2021/07/01 00:50:57;;;;;;;2.13;1.77;;;;;;;15.86;65.09;100915.97;5039536;28;20230;-67
2021/07/01 00:53:26;;;;;;;1.90;1.40;;;;;;;15.89;64.99;100906.72;5056943;28;20318;-67
2021/07/01 00:55:56;;;;;;;2.80;1.70;;;;;;;15.81;65.53;100918.22;5040772;28;20204;-67
2021/07/01 00:58:25;;;;;;;3.67;1.40;;;;;;;15.87;65.28;100912.28;5042478;28;20252;-67
2021/07/01 01:01:01;;;;;;;2.17;1.50;;;;;;;15.92;65.59;100906.44;5040541;28;20273;-67
2021/07/01 01:03:33;;;;;;;2.23;1.53;;;;;;;15.82;65.50;100903.69;5038598;28;20224;-67
2021/07/01 01:06:03;;;;;;;3.17;1.57;;;;;;;15.76;65.96;100904.25;5054117;28;20213;-68
2021/07/01 01:08:34;;;;;;;2.53;1.37;;;;;;;15.64;66.56;100889.94;5052904;28;20206;-67
2021/07/01 01:11:03;;;;;;;1.77;1.30;;;;;;;15.61;67.01;100895.63;5039881;28;20222;-67
2021/07/01 01:13:45;;;;;;;1.77;1.37;;;;;;;15.61;66.34;100892.91;5058307;28;20524;-67
2021/07/01 01:16:28;;;;;;;2.17;1.50;;;;;;;15.56;66.69;100892.38;5042552;28;20206;-67
2021/07/01 01:18:59;;;;;;;2.67;1.50;;;;;;;15.63;66.43;100887.34;5057602;28;20252;-68
2021/07/01 01:21:30;;;;;;;1.70;1.47;;;;;;;15.60;66.49;100882.19;5044490;28;20204;-68
2021/07/01 01:24:03;;;;;;;1.87;1.57;;;;;;;15.64;66.52;100884.50;5048862;28;20251;-67
2021/07/01 01:26:35;;;;;;;1.70;1.23;;;;;;;15.46;66.66;100859.84;5045970;28;20715;-68
2021/07/01 01:29:03;;;;;;;2.97;1.30;;;;;;;15.50;67.39;100888.38;5060877;28;20237;-67
2021/07/01 01:31:36;;;;;;;1.60;1.27;;;;;;;15.51;67.67;100889.22;5057807;28;20244;-67
2021/07/01 01:34:05;;;;;;;2.53;1.30;;;;;;;15.45;67.41;100887.06;5043576;28;20718;-67
2021/07/01 01:36:34;;;;;;;1.37;1.10;;;;;;;15.47;67.34;100887.78;5043351;28;20198;-67
2021/07/01 01:39:04;;;;;;;1.80;1.03;;;;;;;15.34;68.58;100881.72;5041623;28;20276;-68
2021/07/01 01:41:41;;;;;;;1.40;1.30;;;;;;;15.33;68.54;100869.16;5043746;28;20255;-68
2021/07/01 01:44:09;;;;;;;1.97;1.13;;;;;;;15.35;67.93;100875.31;5049380;28;20288;-68
2021/07/01 01:46:40;;;;;;;1.37;1.10;;;;;;;15.34;68.67;100885.28;5048761;28;20202;-68
2021/07/01 01:49:10;;;;;;;1.30;1.20;;;;;;;15.26;69.17;100873.38;5048799;28;20206;-68
2021/07/01 01:51:40;;;;;;;3.33;0.80;;;;;;;15.38;68.26;100881.31;5045750;28;20687;-67
2021/07/01 01:54:10;;;;;;;1.00;0.90;;;;;;;15.34;68.73;100881.72;5064528;28;20221;-68
2021/07/01 01:56:46;;;;;;;3.27;0.90;;;;;;;15.29;69.22;100878.50;5042792;28;20201;-68
2021/07/01 01:59:44;;;;;;;0.90;0.80;;;;;;;15.23;69.61;100886.16;5047748;28;20238;-68
2021/07/01 02:02:31;;;;;;;2.27;1.00;;;;;;;15.28;68.68;100883.06;5049477;28;20196;-67
2021/07/01 02:05:27;;;;;;;3.97;1.07;;;;;;;15.20;69.03;100875.59;5045922;28;20673;-67
2021/07/01 02:07:56;;;;;;;0.90;0.90;;;;;;;15.16;69.35;100879.56;5060938;28;20565;-67
2021/07/01 02:10:37;;;;;;;2.13;1.13;;;;;;;15.07;69.71;100880.34;5045136;28;20563;-67
2021/07/01 02:13:10;;;;;;;1.73;1.03;;;;;;;15.03;69.98;100857.25;5049044;28;20645;-67
2021/07/01 02:16:05;;;;;;;0.90;0.90;;;;;;;15.17;69.81;100864.19;5045229;28;20255;-70
2021/07/01 02:18:33;;;;;;;1.57;1.00;;;;;;;15.16;70.75;100871.44;5046769;28;20206;-69
2021/07/01 02:21:04;;;;;;;1.03;0.90;;;;;;;15.14;70.80;100865.31;5063100;28;20731;-69
2021/07/01 02:23:33;;;;;;;1.63;1.10;;;;;;;14.66;71.46;100807.25;5043410;28;20645;-69
2021/07/01 02:26:03;;;;;;;1.33;1.20;;;;;;;14.92;71.67;100854.59;5044002;28;20649;-69
2021/07/01 02:28:31;;;;;;;1.43;0.77;;;;;;;14.95;71.47;100856.16;5054189;28;20210;-70
2021/07/01 02:31:23;;;;;;;1.60;1.10;;;;;;;14.96;71.32;100863.28;5037425;28;20236;-69
2021/07/01 02:33:51;;;;;;;0.80;0.80;;;;;;;14.93;71.56;100853.59;5044501;28;20204;-70
2021/07/01 02:36:26;;;;;;;1.93;1.00;;;;;;;14.98;71.39;100859.47;5057070;28;20215;-69
2021/07/01 02:39:12;;;;;;;1.03;0.93;;;;;;;14.98;72.03;100853.19;5043946;28;20209;-69
2021/07/01 02:41:42;;;;;;;0.97;0.90;;;;;;;14.89;71.83;100854.84;5045593;28;20198;-69
2021/07/01 02:44:11;;;;;;;1.77;1.20;;;;;;;14.94;72.38;100847.19;5047924;28;20626;-70
2021/07/01 02:46:59;;;;;;;2.67;1.00;;;;;;;14.82;72.23;100853.66;5042529;28;20213;-69
2021/07/01 02:49:33;;;;;;;2.23;0.97;;;;;;;14.76;73.51;100848.75;5042948;28;20696;-69
2021/07/01 02:52:12;;;;;;;2.70;1.17;;;;;;;14.66;74.81;100853.19;5038050;28;20643;-70
2021/07/01 02:54:40;;;;;;;1.97;0.93;;;;;;;14.57;75.82;100861.09;5059325;28;20236;-68
2021/07/01 02:57:12;;;;;;;1.40;0.83;;;;;;;14.62;76.24;100865.25;5040458;28;20291;-68
2021/07/01 02:59:50;;;;;;;1.10;1.00;;;;;;;14.50;76.43;100869.84;5035470;28;20215;-70
2021/07/01 03:02:21;;;;;;;1.20;1.10;;;;;;;14.46;77.05;100865.69;5042995;28;20193;-69
2021/07/01 03:05:11;;;;;;;1.10;1.00;;;;;;;14.36;78.40;100870.91;5046302;28;20243;-69
2021/07/01 03:07:39;;;;;;;2.20;1.27;;;;;;;14.37;77.58;100861.81;5042128;28;20724;-68
2021/07/01 03:10:08;;;;;;;1.90;1.03;;;;;;;14.39;77.67;100870.69;5043841;28;20232;-67
2021/07/01 03:12:54;;;;;;;1.27;1.17;;;;;;;14.32;78.75;100885.66;5061722;28;20325;-68
2021/07/01 03:15:23;;;;;;;0.80;0.80;;;;;;;14.34;79.02;100872.88;5043065;28;20530;-68
2021/07/01 03:17:51;;;;;;;1.73;1.00;;;;;;;14.35;79.23;100876.44;5041210;28;20363;-68
2021/07/01 03:20:26;;;;;;;2.57;1.00;;;;;;;14.35;78.74;100876.44;5046156;28;20287;-68
2021/07/01 03:23:13;;;;;;;1.73;0.80;;;;;;;14.29;78.42;100857.06;5041288;28;20225;-68
2021/07/01 03:25:41;;;;;;;1.40;0.90;;;;;;;14.34;79.05;100872.88;5053574;28;20209;-68
2021/07/01 03:28:11;;;;;;;1.03;1.00;;;;;;;14.31;78.71;100870.44;5045753;28;20288;-68
2021/07/01 03:30:40;;;;;;;1.00;0.90;;;;;;;14.35;78.89;100869.19;5041010;28;20310;-68
2021/07/01 03:33:08;;;;;;;0.90;0.90;;;;;;;14.33;79.56;100871.16;5043360;28;20225;-68
2021/07/01 03:35:38;;;;;;;0.83;0.83;;;;;;;14.30;79.64;100872.28;5038187;28;20641;-68
2021/07/01 03:38:24;;;;;;;3.03;0.87;;;;;;;14.30;78.77;100864.19;5048002;28;20282;-68
2021/07/01 03:41:22;;;;;;;1.10;0.80;;;;;;;14.38;78.72;100855.44;5033590;28;20220;-68
2021/07/01 03:43:52;;;;;;;3.57;1.20;;;;;;;14.44;78.63;100860.41;5041491;28;20243;-68
2021/07/01 03:46:22;;;;;;;2.10;1.00;;;;;;;14.36;79.32;100862.81;5058416;28;20221;-68
2021/07/01 03:48:50;;;;;;;1.10;1.00;;;;;;;14.36;78.85;100852.00;5044775;28;20212;-68
2021/07/01 03:51:37;;;;;;;1.40;1.07;;;;;;;14.38;78.78;100862.69;5042138;28;20599;-69
2021/07/01 03:54:20;;;;;;;1.17;0.93;;;;;;;14.38;78.71;100844.63;5060134;28;20208;-68
2021/07/01 03:56:48;;;;;;;1.80;0.70;;;;;;;14.37;79.13;100853.72;5042122;28;20209;-69
2021/07/01 03:59:25;;;;;;;1.00;0.90;;;;;;;14.18;80.24;100826.50;5043270;28;20216;-69
2021/07/01 04:02:11;;;;;;;0.90;0.90;;;;;;;14.26;79.91;100848.34;5042830;28;20210;-67
2021/07/01 04:04:40;;;;;;;3.40;1.30;;;;;;;14.13;79.04;100818.78;5063988;28;20672;-67
2021/07/01 04:07:08;;;;;;;0.90;0.90;;;;;;;14.32;79.19;100846.97;5043032;28;20668;-67
2021/07/01 04:09:39;;;;;;;1.43;0.97;;;;;;;14.18;79.65;100834.63;5043039;28;20209;-67
2021/07/01 04:12:28;;;;;;;1.23;1.10;;;;;;;14.26;79.25;100846.50;5043546;28;20312;-67
2021/07/01 04:15:16;;;;;;;1.93;1.30;;;;;;;14.21;79.79;100842.47;5041369;28;20352;-67
2021/07/01 04:18:09;;;;;;;1.13;1.03;;;;;;;14.28;79.69;100843.69;5044060;28;20236;-68
2021/07/01 04:20:55;;;;;;;2.63;0.90;;;;;;;14.20;80.28;100847.00;5040740;28;20342;-68
2021/07/01 04:24:02;;;;;;;2.00;0.90;;;;;;;14.25;80.24;100852.03;5032418;28;20223;-68
2021/07/01 04:26:49;;;;;;;0.93;0.83;;;;;;;14.28;80.50;100843.69;5035171;28;20217;-67
2021/07/01 04:29:21;;;;;;;2.73;1.10;;;;;;;14.02;80.82;100812.53;5032718;28;20257;-67
2021/07/01 04:31:52;;;;;;;1.20;1.10;;;;;;;14.23;81.23;100849.47;5041013;28;20196;-67
2021/07/01 04:34:21;;;;;;;1.17;1.00;;;;;;;14.30;80.35;100841.72;5044238;28;20225;-67
2021/07/01 04:36:49;;;;;;;0.97;0.97;;;;;;;14.39;79.92;100842.78;5042942;28;20216;-67
2021/07/01 04:39:18;;;;;;;4.17;1.20;;;;;;;14.34;80.08;100832.34;5043854;28;20243;-67
2021/07/01 04:42:01;;;;;;;3.20;1.00;;;;;;;14.48;80.25;100845.66;5057360;28;20203;-66
2021/07/01 04:44:30;;;;;;;1.13;1.00;;;;;;;14.50;80.13;100850.91;5052348;28;20206;-66
2021/07/01 04:47:02;;;;;;;2.27;1.20;;;;;;;14.49;80.67;100852.75;5033453;28;20205;-66
2021/07/01 04:49:31;;;;;;;0.80;0.80;;;;;;;14.54;79.73;100855.94;5057554;28;20210;-66
2021/07/01 04:52:28;;;;;;;1.63;1.03;;;;;;;14.40;80.29;100842.69;5013562;28;20259;-66
2021/07/01 04:55:15;;;;;;;0.87;0.87;;;;;;;14.60;79.54;100866.25;5037968;28;20217;-66
2021/07/01 04:58:02;;;;;;;1.13;0.90;;;;;;;14.56;80.25;100859.38;5040992;28;20351;-66
2021/07/01 05:00:30;;;;;;;1.20;1.10;;;;;;;14.44;80.31;100846.88;5041622;28;20209;-66
2021/07/01 05:03:18;;;;;;;3.10;1.10;;;;;;;14.52;79.99;100847.09;5045793;28;20210;-66
2021/07/01 05:05:47;;;;;;;1.00;1.00;;;;;;;14.49;80.55;100857.31;5043709;28;20579;-66
2021/07/01 05:08:17;;;;;;;1.67;0.80;;;;;;;14.68;79.90;100864.75;5054357;28;20287;-66
2021/07/01 05:10:49;;;;;;;3.40;1.33;;;;;;;14.74;79.88;100858.84;5042979;28;20204;-66
2021/07/01 05:13:19;;;;;;;3.93;1.30;;;;;;;14.74;79.77;100865.13;5039429;28;20221;-66
2021/07/01 05:15:49;;;;;;;5.17;1.20;;;;;;;14.76;79.89;100851.47;5042413;28;21470;-67
2021/07/01 05:18:19;;;;;;;2.57;1.00;;;;;;;14.69;79.75;100850.22;5041955;28;20194;-66
2021/07/01 05:21:10;;;;;;;3.10;1.27;;;;;;;14.68;80.21;100851.22;5040326;28;20688;-66
2021/07/01 05:23:58;;;;;;;0.97;0.90;;;;;;;14.69;79.81;100847.53;5006795;28;20228;-67
2021/07/01 05:26:49;;;;;;;1.87;1.10;;;;;;;14.76;80.00;100851.47;5031269;28;20219;-68
2021/07/01 05:29:36;;;;;;;2.30;1.00;;;;;;;14.77;80.71;100850.47;5040488;28;20283;-66
2021/07/01 05:32:44;;;;;;;3.73;1.20;;;;;;;14.81;80.45;100841.13;5041556;28;20226;-66
2021/07/01 05:35:16;;;;;;;1.23;1.13;;;;;;;14.81;80.17;100841.13;5042630;28;20209;-66
2021/07/01 05:37:51;;;;;;;3.80;1.40;;;;;;;14.94;80.01;100847.19;5060705;28;20206;-64
2021/07/01 05:40:22;;;;;;;1.43;1.00;;;;;;;15.01;79.17;100843.00;5043411;28;20206;-65
2021/07/01 05:42:52;;;;;;;3.30;1.13;;;;;;;14.95;79.13;100840.81;5058664;28;20222;-66
2021/07/01 05:45:20;;;;;;;4.57;1.30;;;;;;;14.96;79.64;100842.50;5043750;28;20282;-66
2021/07/01 05:47:49;;;;;;;1.67;1.00;;;;;;;14.97;78.97;100846.06;5058646;28;20311;-66
2021/07/01 05:50:18;;;;;;;0.87;0.87;;;;;;;14.83;79.37;100841.84;5045116;28;20194;-65
2021/07/01 05:52:50;;;;;;;2.30;0.93;;;;;;;15.06;79.76;100846.19;5040032;28;20202;-66
2021/07/01 05:55:18;;;;;;;1.70;1.00;;;;;;;15.05;79.41;100836.34;5036850;28;20219;-66
2021/07/01 05:57:47;;;;;;;3.93;1.03;;;;;;;15.12;79.52;100848.34;5045506;28;20213;-66
2021/07/01 06:00:18;;;;;;;3.57;1.20;;;;;;;15.18;79.36;100839.72;5036941;28;20202;-66
2021/07/01 06:02:46;;;;;;;1.23;1.10;;;;;;;15.34;79.31;100847.38;5030627;28;20269;-66
2021/07/01 06:05:15;;;;;;;2.67;1.17;;;;;;;15.43;79.47;100845.72;5033426;28;20200;-66
2021/07/01 06:08:07;;;;;;;2.33;1.20;;;;;;;15.58;79.10;100849.81;5034142;28;20768;-67
2021/07/01 06:10:38;;;;;;;0.73;0.73;;;;;;;15.61;78.59;100857.72;5043665;28;20201;-66
2021/07/01 06:13:07;;;;;;;5.07;1.33;;;;;;;15.70;77.46;100856.03;5050399;28;20217;-66
2021/07/01 06:15:36;;;;;;;1.30;1.13;;;;;;;15.79;77.32;100861.50;5057054;28;20198;-66
2021/07/01 06:18:06;;;;;;;1.23;1.00;;;;;;;15.76;76.94;100861.78;5046707;28;20193;-66
2021/07/01 06:20:34;;;;;;;1.47;1.27;;;;;;;15.17;77.67;100762.25;5056250;28;20204;-66
2021/07/01 06:23:04;;;;;;;1.00;1.00;;;;;;;15.82;76.79;100833.28;5044742;28;20711;-66
2021/07/01 06:25:33;;;;;;;1.27;1.00;;;;;;;15.76;76.87;100850.94;5046544;28;20220;-66
2021/07/01 06:28:01;;;;;;;2.90;1.00;;;;;;;15.75;77.03;100854.63;5046957;28;20208;-66
2021/07/01 06:30:35;;;;;;;2.60;1.30;;;;;;;15.84;76.80;100856.53;5055134;28;20233;-66
2021/07/01 06:33:05;;;;;;;4.87;0.90;;;;;;;15.77;77.53;100846.38;5043852;28;20567;-65
2021/07/01 06:35:33;;;;;;;1.33;1.20;;;;;;;15.72;77.22;100860.31;5047113;28;20194;-66
2021/07/01 06:38:13;;;;;;;3.33;1.33;;;;;;;15.69;77.44;100852.47;5037892;28;20237;-66
2021/07/01 06:41:03;;;;;;;1.70;1.20;;;;;;;15.39;77.83;100831.59;5041091;28;20637;-66
2021/07/01 06:43:57;;;;;;;1.67;1.10;;;;;;;15.56;78.27;100856.34;5020947;28;20219;-66
2021/07/01 06:46:44;;;;;;;2.10;1.03;;;;;;;15.60;78.32;100839.72;5041201;28;20212;-65
2021/07/01 06:49:32;;;;;;;3.10;1.37;;;;;;;15.51;78.47;100845.91;5047978;28;20212;-66
2021/07/01 06:52:20;;;;;;;2.43;1.20;;;;;;;15.44;77.86;100860.97;5047227;28;20230;-65
2021/07/01 06:55:09;;;;;;;3.40;1.20;;;;;;;15.46;78.28;100856.28;5047392;28;20232;-65
2021/07/01 06:58:06;;;;;;;1.90;0.93;;;;;;;15.41;79.03;100862.09;5057403;28;20242;-66
2021/07/01 07:00:34;;;;;;;3.30;1.00;;;;;;;15.37;78.69;100876.03;5047812;28;20613;-66
2021/07/01 07:03:04;;;;;;;1.90;1.10;;;;;;;15.34;78.90;100871.75;5046784;28;20198;-65
2021/07/01 07:05:32;;;;;;;5.03;1.40;;;;;;;15.20;79.39;100847.69;5047649;28;20208;-66
2021/07/01 07:08:00;;;;;;;1.83;1.00;;;;;;;15.34;79.26;100876.28;5045780;28;20198;-65
2021/07/01 07:10:29;;;;;;;2.37;1.20;;;;;;;15.23;79.74;100864.53;5049529;28;20210;-66
2021/07/01 07:12:57;;;;;;;1.00;0.90;;;;;;;15.31;79.21;100871.16;5034922;28;20206;-65
2021/07/01 07:15:28;;;;;;;1.10;1.00;;;;;;;15.29;79.58;100878.50;5048699;28;20727;-66
2021/07/01 07:18:01;;;;;;;5.33;1.00;;;;;;;15.33;79.83;100869.16;5046959;28;20296;-66
2021/07/01 07:20:31;;;;;;;1.97;1.03;;;;;;;15.15;79.74;100829.16;5049091;28;20212;-66
2021/07/01 07:23:03;;;;;;;2.97;1.20;;;;;;;15.49;80.01;100883.09;5046924;28;20193;-66
2021/07/01 07:25:39;;;;;;;7.77;1.00;;;;;;;15.65;79.09;100888.94;5046377;28;20221;-66
2021/07/01 07:28:08;;;;;;;2.27;1.07;;;;;;;15.73;79.00;100889.13;5040934;28;20206;-66
2021/07/01 07:30:38;;;;;;;1.30;1.03;;;;;;;15.80;79.33;100886.72;5042067;28;20230;-66
2021/07/01 07:33:08;;;;;;;4.10;0.97;;;;;;;15.86;78.38;100891.59;5048259;28;21085;-66
2021/07/01 07:35:37;;;;;;;1.63;1.20;;;;;;;15.53;78.87;100833.97;5047366;28;20237;-66
2021/07/01 07:38:09;;;;;;;0.90;0.90;;;;;;;15.71;78.09;100864.03;5032597;28;20203;-65
2021/07/01 07:40:42;;;;;;;1.20;1.10;;;;;;;15.99;78.28;100894.13;5035134;28;20205;-66
2021/07/01 07:43:13;;;;;;;3.73;1.30;;;;;;;16.02;78.51;100880.28;5033278;28;20685;-66
2021/07/01 07:45:42;;;;;;;4.97;1.10;;;;;;;16.06;77.67;100870.91;5037664;28;20584;-66
2021/07/01 07:48:10;;;;;;;3.07;1.00;;;;;;;16.17;77.42;100878.06;5034176;28;20186;-66
2021/07/01 07:50:40;;;;;;;1.00;0.90;;;;;;;16.23;77.49;100883.81;5030994;28;20576;-66
2021/07/01 07:53:15;;;;;;;1.70;1.00;;;;;;;16.30;77.47;100882.25;5044640;28;20200;-66
2021/07/01 07:55:47;;;;;;;1.63;1.00;;;;;;;16.52;77.75;100873.03;5030591;28;20228;-66
2021/07/01 07:58:24;;;;;;;1.37;1.10;;;;;;;16.52;77.08;100864.91;5032923;28;20249;-66
2021/07/01 08:00:52;;;;;;;2.40;1.03;;;;;;;16.75;76.05;100865.56;5031137;28;20206;-66
2021/07/01 08:03:21;;;;;;;2.20;1.30;;;;;;;16.90;75.92;100871.44;5043693;28;20206;-66
2021/07/01 08:05:49;;;;;;;2.93;1.27;;;;;;;17.07;75.63;100866.16;5046989;28;20194;-66
2021/07/01 08:08:18;;;;;;;2.93;1.40;;;;;;;17.00;74.75;100859.59;5037116;28;20207;-66
2021/07/01 08:10:50;;;;;;;1.97;1.10;;;;;;;17.26;75.18;100870.72;5047693;28;20573;-65
2021/07/01 08:13:22;;;;;;;2.33;0.80;;;;;;;17.37;75.01;100867.84;5041310;28;20666;-67
2021/07/01 08:15:50;;;;;;;1.23;1.10;;;;;;;17.55;74.55;100876.13;5043178;28;20218;-66
2021/07/01 08:18:22;;;;;;;6.10;1.10;;;;;;;17.44;73.74;100870.81;5045555;28;20616;-67
2021/07/01 08:20:50;;;;;;;3.90;1.47;;;;;;;17.62;73.85;100857.38;5036900;28;20225;-67
2021/07/01 08:23:19;;;;;;;1.80;1.13;;;;;;;17.82;73.36;100879.97;5033582;28;20213;-67
2021/07/01 08:25:49;;;;;;;1.80;1.20;;;;;;;17.88;73.05;100872.06;5030656;28;20198;-67
2021/07/01 08:28:20;;;;;;;2.20;1.10;;;;;;;17.94;72.24;100876.03;5032415;28;20198;-66
2021/07/01 08:30:48;;;;;;;0.90;0.90;;;;;;;18.18;71.20;100883.69;5029605;28;20241;-66
2021/07/01 08:33:19;;;;;;;1.00;1.00;;;;;;;18.26;71.35;100884.63;5032766;28;20232;-66
2021/07/01 08:35:51;;;;;;;2.63;1.23;;;;;;;18.39;71.20;100886.19;5043961;28;20217;-66
2021/07/01 08:38:20;;;;;;;4.53;1.00;;;;;;;18.67;70.99;100882.44;5050630;28;20570;-65
2021/07/01 08:40:51;;;;;;;5.27;1.23;;;;;;;18.69;69.63;100874.16;5046463;28;20199;-65
2021/07/01 08:43:21;;;;;;;4.63;1.50;;;;;;;18.75;69.16;100882.56;5050497;28;20563;-66
2021/07/01 08:46:12;;;;;;;2.57;1.07;;;;;;;18.78;69.14;100887.69;5052500;28;20284;-66
2021/07/01 08:48:53;;;;;;;1.43;1.10;;;;;;;18.73;69.10;100884.56;5047860;28;20205;-66
2021/07/01 08:51:28;;;;;;;2.07;1.03;;;;;;;18.71;68.56;100877.56;5041919;28;20198;-66
2021/07/01 08:54:22;;;;;;;1.20;1.10;;;;;;;18.84;69.54;100887.06;5040525;28;20221;-67
2021/07/01 08:56:54;;;;;;;1.60;1.27;;;;;;;18.80;68.88;100882.09;5036569;28;20541;-66
2021/07/01 08:59:23;;;;;;;2.53;1.23;;;;;;;18.78;69.83;100886.81;5045978;28;20202;-67
2021/07/01 09:01:57;;;;;;;1.23;1.17;;;;;;;18.86;69.01;100878.75;5040685;28;20209;-66
2021/07/01 09:04:29;;;;;;;1.67;1.10;;;;;;;18.99;69.32;100887.41;5035280;28;20264;-66
2021/07/01 09:07:00;;;;;;;0.97;0.93;;;;;;;19.14;68.38;100884.97;5038899;28;20351;-65
2021/07/01 09:09:35;;;;;;;6.20;1.20;;;;;;;19.22;69.02;100887.78;5046882;28;20205;-65
2021/07/01 09:12:07;;;;;;;4.83;1.30;;;;;;;19.12;67.21;100882.41;5046916;28;20704;-65
2021/07/01 09:14:36;;;;;;;2.70;1.37;;;;;;;19.16;67.77;100891.13;5046256;28;20269;-65
2021/07/01 09:17:09;;;;;;;3.40;1.13;;;;;;;19.27;68.27;100888.16;5047080;28;20202;-65
2021/07/01 09:19:39;;;;;;;3.23;1.20;;;;;;;19.31;67.96;100895.03;5045747;28;20304;-65
2021/07/01 09:22:11;;;;;;;2.63;1.30;;;;;;;19.36;68.15;100898.13;5047012;28;20210;-65
2021/07/01 09:24:40;;;;;;;2.43;1.20;;;;;;;19.15;67.88;100884.81;5045409;28;20230;-65
2021/07/01 09:27:12;;;;;;;1.97;1.30;;;;;;;19.29;67.32;100901.63;5046573;28;20281;-65
2021/07/01 09:29:42;;;;;;;2.90;1.20;;;;;;;19.29;68.15;100927.00;5045196;28;20230;-65
2021/07/01 09:32:12;;;;;;;3.17;1.40;;;;;;;19.10;68.04;100876.28;5047139;28;20202;-66
2021/07/01 09:34:42;;;;;;;1.93;1.37;;;;;;;19.33;69.09;100903.88;5059647;28;20193;-66
2021/07/01 09:37:11;;;;;;;2.10;1.43;;;;;;;19.22;69.78;100891.34;5040391;28;20317;-66
2021/07/01 09:39:40;;;;;;;1.57;1.20;;;;;;;19.24;71.14;100915.69;5037431;28;20220;-66
2021/07/01 09:42:10;;;;;;;2.03;1.47;;;;;;;19.18;71.27;100908.16;5046064;28;20684;-66
2021/07/01 09:44:40;;;;;;;1.40;1.30;;;;;;;19.18;70.55;100903.56;5043283;28;20587;-66
2021/07/01 09:47:10;;;;;;;2.23;1.27;;;;;;;19.09;70.97;100900.94;5043181;28;20205;-66
2021/07/01 09:49:40;;;;;;;2.43;1.37;;;;;;;18.85;71.85;100904.25;5047230;28;20197;-66
2021/07/01 09:52:10;;;;;;;2.63;1.40;;;;;;;18.83;71.89;100901.69;5040254;28;20202;-67
2021/07/01 09:54:41;;;;;;;3.60;1.50;;;;;;;18.65;73.42;100903.50;5037195;28;20229;-66
2021/07/01 09:57:20;;;;;;;1.73;1.40;;;;;;;18.64;73.47;100906.38;5037173;28;20286;-66
2021/07/01 09:59:53;;;;;;;2.00;1.33;;;;;;;18.50;73.76;100905.00;5041389;28;20217;-66
2021/07/01 10:02:23;;;;;;;1.40;1.30;;;;;;;18.35;74.81;100911.94;5050362;28;20198;-67
2021/07/01 10:04:52;;;;;;;2.80;1.30;;;;;;;18.30;75.92;100896.94;5048744;28;20284;-67
2021/07/01 10:07:23;;;;;;;3.07;1.23;;;;;;;18.23;75.94;100903.97;5049682;28;20209;-67
2021/07/01 10:09:53;;;;;;;1.70;1.37;;;;;;;18.25;75.86;100912.84;5049114;28;20210;-67
2021/07/01 10:12:24;;;;;;;3.03;1.30;;;;;;;18.29;75.76;100908.81;5049198;28;20212;-66
2021/07/01 10:14:56;;;;;;;2.63;1.33;;;;;;;18.29;75.79;100889.78;5057647;28;20197;-67
2021/07/01 10:17:25;;;;;;;2.20;1.20;;;;;;;18.38;76.85;100901.63;5049661;28;20249;-66
2021/07/01 10:20:07;;;;;;;2.10;1.50;;;;;;;18.35;75.33;100903.78;5048005;28;20248;-66
2021/07/01 10:22:37;;;;;;;1.97;1.47;;;;;;;18.34;75.58;100893.91;5045948;28;20216;-66
2021/07/01 10:25:06;;;;;;;3.27;1.20;;;;;;;18.42;76.25;100878.56;5047045;28;20217;-65
2021/07/01 10:27:40;;;;;;;1.20;1.10;;;;;;;18.36;75.63;100842.94;5045299;28;20202;-66
2021/07/01 10:30:16;;;;;;;1.93;1.43;;;;;;;18.78;75.07;100876.78;5048522;28;20704;-66
2021/07/01 10:32:46;;;;;;;1.87;1.30;;;;;;;18.96;75.25;100878.66;5055215;28;20209;-66
2021/07/01 10:35:30;;;;;;;3.03;1.40;;;;;;;19.20;75.02;100884.34;5064173;28;20202;-66
2021/07/01 10:38:05;;;;;;;1.60;1.30;;;;;;;19.36;73.26;100876.34;5040528;28;20202;-66
2021/07/01 10:40:36;;;;;;;2.03;1.20;;;;;;;19.52;72.95;100881.91;5043988;28;20209;-66
2021/07/01 10:43:07;;;;;;;2.13;1.50;;;;;;;19.88;72.75;100872.81;5032599;28;20206;-65
2021/07/01 10:45:35;;;;;;;2.13;1.40;;;;;;;20.05;72.16;100880.94;5032189;28;20202;-65
2021/07/01 10:48:17;;;;;;;2.20;1.70;;;;;;;20.23;69.79;100871.84;5030685;28;20194;-66
2021/07/01 10:50:47;;;;;;;4.70;1.43;;;;;;;20.42;69.49;100879.78;5046030;28;20198;-66
2021/07/01 10:53:33;;;;;;;1.30;1.20;;;;;;;20.64;68.46;100873.72;5048210;28;20272;-66
2021/07/01 10:56:05;;;;;;;1.97;1.33;;;;;;;20.87;67.93;100868.50;5047805;28;20222;-66
2021/07/01 10:58:36;;;;;;;1.50;1.37;;;;;;;21.17;68.05;100868.88;5048981;28;20281;-66
2021/07/01 11:01:24;;;;;;;1.53;1.30;;;;;;;21.38;67.65;100867.34;5049643;28;20223;-67
2021/07/01 11:04:10;;;;;;;3.27;1.43;;;;;;;21.82;68.84;100869.72;5051216;28;20513;-67
2021/07/01 11:06:40;;;;;;;2.70;1.50;;;;;;;21.96;64.91;100882.66;5051671;28;20665;-66
2021/07/01 11:09:10;;;;;;;2.30;1.47;;;;;;;21.98;63.28;100875.13;5041193;28;20206;-67
2021/07/01 11:11:42;;;;;;;2.03;1.60;;;;;;;21.92;61.88;100880.47;5047909;28;20267;-67
2021/07/01 11:14:14;;;;;;;4.77;1.83;;;;;;;22.19;64.04;100876.50;5050760;28;20205;-67
2021/07/01 11:16:44;;;;;;;2.23;1.50;;;;;;;22.06;61.26;100829.69;5058782;28;20222;-67
2021/07/01 11:19:14;;;;;;;2.50;1.40;;;;;;;22.53;62.74;100857.88;5059829;28;20193;-67
2021/07/01 11:21:47;;;;;;;2.73;1.43;;;;;;;22.58;61.73;100877.34;5047330;28;20668;-65
2021/07/01 11:24:17;;;;;;;2.77;1.40;;;;;;;22.42;60.33;100871.97;5059414;28;20209;-66
2021/07/01 11:26:47;;;;;;;6.10;1.63;;;;;;;22.23;59.53;100872.38;5035505;28;20201;-66
2021/07/01 11:29:18;;;;;;;1.53;1.30;;;;;;;22.61;62.13;100866.03;5056974;28;20626;-66
2021/07/01 11:31:47;;;;;;;3.20;1.20;;;;;;;22.98;61.15;100880.09;5044939;28;20202;-66
2021/07/01 11:34:17;;;;;;;4.00;1.50;;;;;;;23.30;59.02;100877.09;5048176;28;20212;-66
2021/07/01 11:36:50;;;;;;;1.70;1.40;;;;;;;23.13;58.84;100864.56;5049003;28;20229;-66
2021/07/01 11:39:25;;;;;;;1.73;1.37;;;;;;;23.51;59.44;100870.91;5046414;28;20570;-66
2021/07/01 11:41:53;;;;;;;2.27;1.57;;;;;;;23.55;56.45;100875.00;5045005;28;20707;-66
2021/07/01 11:44:24;;;;;;;2.37;1.30;;;;;;;23.56;56.63;100871.25;5046551;28;20194;-65
2021/07/01 11:46:53;;;;;;;2.60;1.60;;;;;;;23.57;56.97;100875.69;5045517;28;20744;-66
2021/07/01 11:49:22;;;;;;;4.57;1.63;;;;;;;23.42;57.95;100861.91;5043392;28;20409;-67
2021/07/01 11:51:51;;;;;;;1.90;1.40;;;;;;;23.58;56.31;100884.78;5040423;28;20195;-66
2021/07/01 11:54:21;;;;;;;1.70;1.40;;;;;;;23.68;57.04;100868.91;5048089;28;20202;-67